Sao Cristovao, Brazil
Current Conditions -  °F | °C
As of 3:00 PM on Saturday 20 Dec 2014 (Local Time) from SBAR Reporting Station
Clear Clear  
Wind Chill: 82°   Ceiling: Unl
Heat Index: 87°   Visibility: 6mi
Dew Point: 72°   Wind: 16mph
Humidity: 70%   Direction: 100°E
Pressure: 29.88"   Gusts: NA
Location:  11.01°S, 37.21°W
Report Text: SBAR 201800Z 10014KT CAVOK 28/22 Q1012
Loading
Personal Weather Stations






























Interactive Weather Map New forecast layout! Learn more

10-Day Weather Forecast

Advertisements
Track Severe Weather on mobile